Pelham, North Carolina
Current Conditions -  °F | °C
As of 3:53 AM on Friday 24 Oct 2014 (Local Time) from KDAN Reporting Station
Clear Clear  
Wind Chill: 51°   Ceiling: Unl
Heat Index: 51°   Visibility: 10mi
Dew Point: 40°   Wind: 6mph
Humidity: 66%   Direction: 290°WNW
Pressure: 30.02"   Gusts: NA
Location:  36.51°N, 79.47°W
Report Text: KDAN 240753Z AUTO 29005KT 10SM CLR 11/04 A3002 RMK AO2 SLP159 T01060044
Loading
Personal Weather Stations






























Interactive Weather Map
Tropical Storm Tracking
New forecast layout! Learn more

10-Day Weather Forecast

Advertisements
Track Severe Weather on mobile